Time;durP1;ratioP1;P1;durP2;ratioP2;P2;SDS_P1;SDS_P2;PMS_P1;PMS_P2;Temp;Humidity;BMP_temperature;BMP_pressure;BME280_temperature;BME280_humidity;BME280_pressure;Samples;Min_cycle;Max_cycle;Signal;HPM_P1;HPM_P2
2024/01/21 00:01:06;;;;;;;9.77;9.10;;;;;;;-7.72;100.00;99736.31;4188273;28;20204;-53
2024/01/21 00:03:08;;;;;;;11.60;9.13;;;;;;;-7.62;100.00;99736.53;4190726;28;20967;-53
2024/01/21 00:05:10;;;;;;;7.90;7.33;;;;;;;-7.75;100.00;99736.50;4203601;28;20253;-52
2024/01/21 00:07:12;;;;;;;9.40;8.77;;;;;;;-7.77;100.00;99738.44;4194419;28;20298;-54
2024/01/21 00:09:14;;;;;;;8.93;8.33;;;;;;;-7.78;100.00;99742.06;4171886;28;20205;-53
2024/01/21 00:11:15;;;;;;;10.77;10.03;;;;;;;-7.80;100.00;99738.66;4187491;28;20231;-54
2024/01/21 00:13:17;;;;;;;6.43;6.03;;;;;;;-7.76;100.00;99742.78;4195987;28;20638;-53
2024/01/21 00:15:19;;;;;;;13.07;9.07;;;;;;;-7.69;100.00;99733.44;4194531;28;20204;-52
2024/01/21 00:17:20;;;;;;;8.47;8.07;;;;;;;-7.71;100.00;99735.34;4195113;28;20207;-53
2024/01/21 00:19:22;;;;;;;15.70;11.50;;;;;;;-7.73;100.00;99731.09;4195097;28;20257;-53
2024/01/21 00:21:24;;;;;;;8.87;8.47;;;;;;;-7.74;100.00;99727.63;4195118;28;20212;-53
2024/01/21 00:23:26;;;;;;;9.97;8.97;;;;;;;-7.84;100.00;99728.34;4178993;28;20871;-52
2024/01/21 00:25:27;;;;;;;6.80;6.47;;;;;;;-7.80;100.00;99721.88;4195185;28;20215;-53
2024/01/21 00:27:29;;;;;;;8.20;7.67;;;;;;;-7.92;100.00;99723.56;4186460;28;20208;-55
2024/01/21 00:29:31;;;;;;;9.10;8.43;;;;;;;-7.94;100.00;99721.97;4187607;28;20208;-54
2024/01/21 00:31:34;;;;;;;10.67;8.93;;;;;;;-7.93;100.00;99724.53;4186626;28;20245;-54
2024/01/21 00:33:36;;;;;;;9.50;8.87;;;;;;;-7.95;100.00;99717.63;4185641;28;20211;-54
2024/01/21 00:35:38;;;;;;;6.83;6.50;;;;;;;-7.91;100.00;99716.44;4186887;28;20740;-54
2024/01/21 00:37:39;;;;;;;9.20;8.33;;;;;;;-7.98;100.00;99717.81;4187578;28;20288;-57
2024/01/21 00:39:41;;;;;;;10.97;7.27;;;;;;;-8.01;100.00;99718.88;4187720;28;20218;-57
2024/01/21 00:41:43;;;;;;;26.80;10.70;;;;;;;-8.07;100.00;99727.28;4185977;28;20264;-54
2024/01/21 00:44:01;;;;;;;7.03;6.60;;;;;;;-8.12;100.00;99716.13;4175407;28;20223;-57
2024/01/21 00:46:05;;;;;;;6.80;6.33;;;;;;;-8.12;100.00;99710.81;4197628;28;20294;-53
2024/01/21 00:48:07;;;;;;;7.30;6.80;;;;;;;-8.15;100.00;99711.00;4188316;28;20215;-53
2024/01/21 00:50:09;;;;;;;9.87;9.30;;;;;;;-8.16;100.00;99709.31;4187626;28;20211;-52
2024/01/21 00:52:11;;;;;;;9.07;8.47;;;;;;;-8.07;100.00;99698.09;4187663;28;20234;-54
2024/01/21 00:54:15;;;;;;;9.27;8.77;;;;;;;-8.08;100.00;99706.16;4180898;28;20208;-54
2024/01/21 00:56:17;;;;;;;8.13;7.73;;;;;;;-8.13;100.00;99698.50;4183082;28;20223;-53
2024/01/21 00:58:19;;;;;;;9.90;9.33;;;;;;;-8.06;100.00;99699.78;4182032;28;20268;-53
2024/01/21 01:00:25;;;;;;;8.60;8.03;;;;;;;-8.14;100.00;99707.44;4201342;28;20210;-55
2024/01/21 01:02:28;;;;;;;8.70;8.27;;;;;;;-8.19;100.00;99712.19;4176403;28;20236;-52
2024/01/21 01:04:31;;;;;;;17.23;9.37;;;;;;;-8.27;100.00;99717.22;4189661;28;20750;-52
2024/01/21 01:06:33;;;;;;;8.13;7.47;;;;;;;-8.45;100.00;99729.06;4185963;28;20215;-54
2024/01/21 01:08:35;;;;;;;9.87;9.27;;;;;;;-8.36;100.00;99728.41;4185743;28;20287;-53
2024/01/21 01:10:36;;;;;;;8.57;7.97;;;;;;;-8.27;100.00;99727.81;4185984;28;20223;-53
2024/01/21 01:12:40;;;;;;;10.13;9.43;;;;;;;-8.39;100.00;99725.13;4198532;28;20231;-55
2024/01/21 01:14:42;;;;;;;8.37;7.93;;;;;;;-8.37;100.00;99726.72;4166211;28;20278;-57
2024/01/21 01:16:44;;;;;;;9.70;9.20;;;;;;;-8.34;100.00;99731.81;4184361;28;20330;-54
2024/01/21 01:18:46;;;;;;;7.70;7.20;;;;;;;-8.34;100.00;99721.19;4186413;28;20207;-54
2024/01/21 01:20:48;;;;;;;7.37;6.87;;;;;;;-8.36;100.00;99728.41;4183669;28;20702;-53
2024/01/21 01:22:50;;;;;;;8.53;7.93;;;;;;;-8.24;100.00;99724.94;4183564;28;20220;-55
2024/01/21 01:24:51;;;;;;;9.80;9.07;;;;;;;-8.35;100.00;99729.28;4184182;28;20204;-55
2024/01/21 01:26:53;;;;;;;9.60;8.90;;;;;;;-8.33;100.00;99725.59;4198828;28;20203;-56
2024/01/21 01:28:55;;;;;;;11.70;8.77;;;;;;;-8.28;100.00;99728.75;4170520;28;20231;-55
2024/01/21 01:30:57;;;;;;;8.97;8.23;;;;;;;-8.40;100.00;99715.47;4186662;28;20212;-57
2024/01/21 01:32:59;;;;;;;10.03;9.47;;;;;;;-8.26;100.00;99726.00;4193214;28;20267;-52
2024/01/21 01:35:01;;;;;;;7.43;6.93;;;;;;;-8.18;100.00;99711.22;4185350;28;20239;-52
2024/01/21 01:37:03;;;;;;;12.80;9.17;;;;;;;-8.34;100.00;99707.94;4177858;28;20219;-55
2024/01/21 01:39:07;;;;;;;9.00;8.37;;;;;;;-8.36;100.00;99712.50;4186195;28;21088;-53
2024/01/21 01:41:09;;;;;;;7.53;6.90;;;;;;;-8.32;100.00;99711.34;4182183;28;20203;-55
2024/01/21 01:43:10;;;;;;;7.37;6.87;;;;;;;-8.28;100.00;99707.53;4187607;28;22491;-53
2024/01/21 01:45:12;;;;;;;11.60;10.93;;;;;;;-8.34;100.00;99707.94;4182595;28;20247;-56
2024/01/21 01:47:15;;;;;;;9.63;9.17;;;;;;;-8.33;100.00;99699.06;4179535;28;20298;-58
2024/01/21 01:49:17;;;;;;;8.97;8.27;;;;;;;-8.38;100.00;99709.13;4181424;28;20216;-54
2024/01/21 01:51:19;;;;;;;8.13;7.43;;;;;;;-8.40;100.00;99711.03;4183177;28;20245;-56
2024/01/21 01:53:21;;;;;;;10.30;9.63;;;;;;;-8.34;100.00;99715.06;4182796;28;20230;-53
2024/01/21 01:55:23;;;;;;;10.00;9.57;;;;;;;-8.24;100.00;99711.69;4185848;28;20207;-54
2024/01/21 01:57:25;;;;;;;8.40;7.93;;;;;;;-8.36;100.00;99715.16;4186851;28;20632;-56
2024/01/21 01:59:28;;;;;;;7.37;6.87;;;;;;;-8.40;100.00;99703.06;4184829;28;20207;-56
2024/01/21 02:01:30;;;;;;;10.60;9.37;;;;;;;-8.31;100.00;99699.78;4180677;28;20211;-53
2024/01/21 02:03:32;;;;;;;7.63;7.07;;;;;;;-8.36;100.00;99701.88;4180944;28;20218;-53
2024/01/21 02:05:35;;;;;;;7.67;7.37;;;;;;;-8.29;100.00;99692.56;4181909;28;20874;-52
2024/01/21 02:07:37;;;;;;;18.57;7.70;;;;;;;-8.35;100.00;99697.44;4198326;28;20830;-53
2024/01/21 02:09:38;;;;;;;7.87;7.20;;;;;;;-8.41;100.00;99698.69;4185306;28;20207;-56
2024/01/21 02:11:40;;;;;;;9.40;8.83;;;;;;;-8.31;100.00;99683.88;4182775;28;20708;-52
2024/01/21 02:13:42;;;;;;;8.53;8.13;;;;;;;-8.39;100.00;99686.19;4182390;28;20228;-53
2024/01/21 02:15:44;;;;;;;9.83;7.53;;;;;;;-8.46;100.00;99671.66;4185594;28;20204;-53
2024/01/21 02:17:46;;;;;;;16.67;8.70;;;;;;;-8.50;100.00;99680.75;4185528;28;20223;-53
2024/01/21 02:19:48;;;;;;;8.70;8.17;;;;;;;-8.55;100.00;99676.72;4182020;28;20203;-53
2024/01/21 02:21:50;;;;;;;10.17;9.50;;;;;;;-8.50;100.00;99670.16;4199666;28;20314;-53
2024/01/21 02:23:51;;;;;;;7.83;7.23;;;;;;;-8.52;100.00;99664.09;4180440;28;20208;-58
2024/01/21 02:25:53;;;;;;;7.97;7.57;;;;;;;-8.55;100.00;99656.34;4180278;28;20204;-55
2024/01/21 02:27:56;;;;;;;8.00;7.50;;;;;;;-8.58;100.00;99659.22;4164620;28;20609;-53
2024/01/21 02:29:58;;;;;;;19.63;9.90;;;;;;;-8.49;100.00;99660.41;4182092;28;20237;-54
2024/01/21 02:32:00;;;;;;;8.10;7.67;;;;;;;-8.51;100.00;99665.78;4182965;28;20235;-54
2024/01/21 02:34:01;;;;;;;8.77;8.23;;;;;;;-8.50;100.00;99656.88;4183140;28;20586;-54
2024/01/21 02:36:03;;;;;;;11.07;10.40;;;;;;;-8.48;100.00;99654.97;4182642;28;20555;-53
2024/01/21 02:38:05;;;;;;;9.23;8.37;;;;;;;-8.50;100.00;99662.19;4183718;28;20203;-55
2024/01/21 02:40:08;;;;;;;7.80;7.10;;;;;;;-8.53;100.00;99664.19;4168654;28;20215;-57
2024/01/21 02:42:09;;;;;;;8.37;7.77;;;;;;;-8.45;100.00;99660.09;4180979;28;20223;-54
2024/01/21 02:44:11;;;;;;;8.13;7.63;;;;;;;-8.51;100.00;99659.63;4186944;28;20653;-53
2024/01/21 02:46:16;;;;;;;6.20;5.80;;;;;;;-8.41;100.00;99668.69;4193871;28;20208;-53
2024/01/21 02:48:18;;;;;;;25.60;9.23;;;;;;;-8.49;100.00;99658.56;4202200;28;20207;-54
2024/01/21 02:50:20;;;;;;;9.33;8.47;;;;;;;-8.55;100.00;99655.50;4188305;28;20207;-53
2024/01/21 02:52:22;;;;;;;7.97;7.37;;;;;;;-8.58;100.00;99659.22;4171486;28;20228;-58
2024/01/21 02:54:24;;;;;;;21.17;8.57;;;;;;;-8.58;100.00;99655.69;4182362;28;20269;-55
2024/01/21 02:56:26;;;;;;;12.23;11.40;;;;;;;-8.52;100.00;99655.28;4201693;28;20317;-52
2024/01/21 02:58:28;;;;;;;6.13;5.83;;;;;;;-8.47;100.00;99656.69;4182094;28;20215;-53
2024/01/21 03:00:30;;;;;;;9.77;7.67;;;;;;;-8.59;100.00;99657.50;4200945;28;20248;-53
2024/01/21 03:02:35;;;;;;;8.57;7.93;;;;;;;-8.62;100.00;99652.41;4184257;28;20230;-55
2024/01/21 03:04:37;;;;;;;6.43;6.13;;;;;;;-8.47;100.00;99654.03;4181663;28;20783;-55
2024/01/21 03:06:40;;;;;;;7.03;6.17;;;;;;;-8.50;100.00;99646.28;4179390;28;20207;-53
2024/01/21 03:08:42;;;;;;;7.57;7.13;;;;;;;-8.90;100.00;99636.66;4182598;28;20208;-54
2024/01/21 03:10:43;;;;;;;9.67;8.77;;;;;;;-9.05;100.00;99632.38;4181970;28;20199;-54
2024/01/21 03:12:45;;;;;;;13.10;7.40;;;;;;;-9.27;100.00;99625.94;4191649;28;20404;-52
2024/01/21 03:14:47;;;;;;;7.80;7.40;;;;;;;-9.23;100.00;99611.53;4194162;28;20337;-53
2024/01/21 03:16:49;;;;;;;9.60;9.10;;;;;;;-9.28;100.00;99619.75;4185798;28;20203;-53
2024/01/21 03:18:51;;;;;;;9.33;8.50;;;;;;;-9.12;100.00;99631.06;4186439;28;20940;-55
2024/01/21 03:20:53;;;;;;;13.57;8.73;;;;;;;-9.11;100.00;99638.06;4191029;28;20203;-53
2024/01/21 03:22:54;;;;;;;7.10;6.77;;;;;;;-8.93;100.00;99642.16;4198241;28;20277;-53
2024/01/21 03:24:58;;;;;;;8.57;8.27;;;;;;;-8.85;100.00;99639.84;4200995;28;20207;-55
2024/01/21 03:27:00;;;;;;;8.63;8.13;;;;;;;-8.91;100.00;99640.25;4191166;28;20238;-53
2024/01/21 03:29:02;;;;;;;8.73;8.13;;;;;;;-8.92;100.00;99637.69;4169852;28;20225;-56
2024/01/21 03:31:04;;;;;;;11.63;8.00;;;;;;;-8.96;100.00;99637.06;4199952;28;20207;-54
2024/01/21 03:33:06;;;;;;;14.33;10.40;;;;;;;-8.94;100.00;99640.44;4192225;28;20277;-55
2024/01/21 03:35:08;;;;;;;9.03;8.57;;;;;;;-8.97;100.00;99645.09;4185791;28;20218;-56
2024/01/21 03:37:09;;;;;;;9.80;9.17;;;;;;;-8.95;100.00;99652.00;4182904;28;20203;-54
2024/01/21 03:39:11;;;;;;;7.93;7.47;;;;;;;-8.89;100.00;99669.31;4190266;28;20210;-56
2024/01/21 03:41:13;;;;;;;9.73;9.13;;;;;;;-8.70;100.00;99654.72;4200993;28;20238;-57
2024/01/21 03:43:15;;;;;;;16.20;15.13;;;;;;;-8.81;100.00;99673.13;4191129;28;20270;-52
2024/01/21 03:45:16;;;;;;;6.37;6.17;;;;;;;-8.80;100.00;99672.22;4198313;28;20214;-52
2024/01/21 03:47:18;;;;;;;8.10;7.70;;;;;;;-8.82;100.00;99666.13;4185529;28;20282;-53
2024/01/21 03:49:20;;;;;;;10.80;10.20;;;;;;;-8.81;100.00;99667.84;4182561;28;20212;-54
2024/01/21 03:51:22;;;;;;;9.83;8.70;;;;;;;-8.76;100.00;99665.75;4186563;28;20295;-53
2024/01/21 03:53:24;;;;;;;8.50;7.70;;;;;;;-8.80;100.00;99664.25;4192643;28;20249;-53
2024/01/21 03:55:26;;;;;;;9.03;8.50;;;;;;;-8.88;100.00;99658.59;4185033;28;20207;-53
2024/01/21 03:57:27;;;;;;;30.87;10.33;;;;;;;-8.98;100.00;99665.47;4171808;28;20212;-54
2024/01/21 03:59:29;;;;;;;8.87;8.27;;;;;;;-8.93;100.00;99655.41;4183104;28;20288;-53
2024/01/21 04:01:31;;;;;;;14.13;9.37;;;;;;;-8.97;100.00;99672.47;4183576;28;20636;-54
2024/01/21 04:03:33;;;;;;;7.23;6.57;;;;;;;-8.95;100.00;99665.25;4186972;28;20207;-53
2024/01/21 04:05:35;;;;;;;9.17;8.63;;;;;;;-8.95;100.00;99669.72;4184447;28;20207;-53
2024/01/21 04:07:36;;;;;;;17.30;9.87;;;;;;;-8.94;100.00;99671.41;4183752;28;20204;-53
2024/01/21 04:09:38;;;;;;;10.77;10.17;;;;;;;-8.95;100.00;99664.41;4185163;28;20299;-54
2024/01/21 04:11:42;;;;;;;7.70;6.97;;;;;;;-8.90;100.00;99673.75;4191301;28;20219;-54
2024/01/21 04:13:44;;;;;;;9.40;8.87;;;;;;;-8.77;100.00;99665.81;4191638;28;20238;-52
2024/01/21 04:15:46;;;;;;;9.67;9.27;;;;;;;-8.85;100.00;99666.34;4193268;28;20206;-53
2024/01/21 04:17:48;;;;;;;8.03;7.63;;;;;;;-8.94;100.00;99656.34;4184578;28;20768;-53
2024/01/21 04:19:50;;;;;;;9.23;8.40;;;;;;;-8.97;100.00;99651.25;4199602;28;20282;-54
2024/01/21 04:21:51;;;;;;;11.50;10.57;;;;;;;-9.10;100.00;99660.09;4187673;28;20709;-55
2024/01/21 04:23:53;;;;;;;6.87;6.37;;;;;;;-9.19;100.00;99656.28;4185535;28;20210;-54
2024/01/21 04:25:55;;;;;;;10.37;9.40;;;;;;;-9.21;100.00;99660.81;4189061;28;20208;-54
2024/01/21 04:28:01;;;;;;;11.90;11.20;;;;;;;-9.30;100.00;99669.34;4189554;28;20203;-54
2024/01/21 04:30:03;;;;;;;8.40;6.63;;;;;;;-9.27;100.00;99669.19;4170730;28;20311;-53
2024/01/21 04:32:05;;;;;;;10.30;9.53;;;;;;;-9.05;100.00;99664.16;4190835;28;20775;-52
2024/01/21 04:34:06;;;;;;;9.87;9.37;;;;;;;-9.17;100.00;99674.69;4194409;28;20289;-53
2024/01/21 04:36:08;;;;;;;9.80;9.10;;;;;;;-9.24;100.00;99676.91;4187183;28;20214;-53
2024/01/21 04:38:10;;;;;;;7.73;7.33;;;;;;;-9.24;100.00;99674.25;4170363;28;20212;-53
2024/01/21 04:40:12;;;;;;;12.37;11.30;;;;;;;-9.21;100.00;99667.91;4203950;28;20211;-55
2024/01/21 04:42:14;;;;;;;8.50;8.10;;;;;;;-9.11;100.00;99661.91;4204361;28;20226;-54
2024/01/21 04:44:15;;;;;;;10.03;9.43;;;;;;;-9.15;100.00;99657.75;4172318;28;20236;-53
2024/01/21 04:46:17;;;;;;;7.80;7.40;;;;;;;-9.18;100.00;99650.03;4188876;28;20207;-52
2024/01/21 04:48:19;;;;;;;8.27;7.87;;;;;;;-9.14;100.00;99640.91;4191364;28;20261;-53
2024/01/21 04:50:24;;;;;;;8.83;8.37;;;;;;;-9.18;100.00;99647.38;4186448;28;20211;-54
2024/01/21 04:52:27;;;;;;;8.73;8.20;;;;;;;-9.14;100.00;99648.03;4189631;28;20236;-55
2024/01/21 04:54:29;;;;;;;7.37;7.07;;;;;;;-9.14;100.00;99637.44;4183097;28;20227;-54
2024/01/21 04:56:31;;;;;;;8.07;7.67;;;;;;;-9.14;100.00;99626.81;4201840;28;20281;-54
2024/01/21 04:58:33;;;;;;;10.53;9.50;;;;;;;-9.24;100.00;99629.22;4178491;28;20693;-54
2024/01/21 05:00:34;;;;;;;8.67;8.20;;;;;;;-9.22;100.00;99618.53;4189938;28;20805;-54
2024/01/21 05:02:36;;;;;;;10.63;9.90;;;;;;;-9.34;100.00;99628.09;4185972;28;20242;-52
2024/01/21 05:04:38;;;;;;;8.80;7.70;;;;;;;-9.31;100.00;99630.56;4194641;28;20211;-53
2024/01/21 05:06:40;;;;;;;9.90;9.20;;;;;;;-9.16;100.00;99624.25;4189134;28;20212;-52
2024/01/21 05:08:42;;;;;;;8.40;7.73;;;;;;;-9.34;100.00;99622.81;4172394;28;20239;-54
2024/01/21 05:10:43;;;;;;;10.43;9.53;;;;;;;-9.30;100.00;99624.31;4202062;28;20264;-53
2024/01/21 05:12:45;;;;;;;11.10;10.27;;;;;;;-9.36;100.00;99610.66;4187371;28;20235;-55
2024/01/21 05:14:47;;;;;;;16.17;7.30;;;;;;;-9.42;100.00;99609.22;4190927;28;20235;-56
2024/01/21 05:16:49;;;;;;;7.47;6.87;;;;;;;-9.40;100.00;99604.69;4174741;28;20200;-54
2024/01/21 05:18:51;;;;;;;7.57;7.03;;;;;;;-9.48;100.00;99601.66;4187911;28;20665;-54
2024/01/21 05:20:53;;;;;;;8.13;7.83;;;;;;;-9.41;100.00;99602.13;4195046;28;20219;-53
2024/01/21 05:22:55;;;;;;;7.17;6.83;;;;;;;-9.37;100.00;99598.31;4192177;28;20293;-53
2024/01/21 05:24:57;;;;;;;12.47;8.60;;;;;;;-9.56;100.00;99606.63;4186713;28;20203;-54
2024/01/21 05:26:59;;;;;;;9.23;8.50;;;;;;;-9.54;100.00;99604.72;4189037;28;20623;-54
2024/01/21 05:29:00;;;;;;;8.93;8.37;;;;;;;-9.52;100.00;99600.19;4183884;28;20691;-55
2024/01/21 05:31:02;;;;;;;7.60;7.20;;;;;;;-9.32;100.00;99606.81;4191623;28;20215;-55
2024/01/21 05:33:04;;;;;;;18.57;10.17;;;;;;;-9.34;100.00;99601.63;4169966;28;20282;-54
2024/01/21 05:35:07;;;;;;;7.97;7.50;;;;;;;-9.41;100.00;99602.97;4185161;28;20256;-53
2024/01/21 05:37:09;;;;;;;8.90;7.67;;;;;;;-9.40;100.00;99602.06;4185331;28;20601;-55
2024/01/21 05:39:10;;;;;;;9.20;8.37;;;;;;;-9.39;100.00;99595.81;4184334;28;20216;-55
2024/01/21 05:41:15;;;;;;;18.37;10.03;;;;;;;-9.36;100.00;99590.28;4201666;28;20298;-54
2024/01/21 05:43:17;;;;;;;9.43;7.80;;;;;;;-9.38;100.00;99605.44;4187158;28;20227;-54
2024/01/21 05:45:19;;;;;;;10.03;7.97;;;;;;;-9.35;100.00;99597.28;4186712;28;20245;-54
2024/01/21 05:47:21;;;;;;;8.03;7.63;;;;;;;-9.22;100.00;99592.03;4186202;28;20216;-57
2024/01/21 05:49:23;;;;;;;7.40;6.60;;;;;;;-9.26;100.00;99594.03;4182191;28;20745;-54
2024/01/21 05:51:25;;;;;;;9.00;8.33;;;;;;;-9.22;100.00;99587.56;4182624;28;20258;-54
2024/01/21 05:53:27;;;;;;;8.90;8.20;;;;;;;-9.15;100.00;99580.09;4192517;28;20265;-56
2024/01/21 05:55:29;;;;;;;7.27;6.93;;;;;;;-9.11;100.00;99590.38;4194339;28;20242;-52
2024/01/21 05:57:30;;;;;;;8.17;7.57;;;;;;;-9.08;100.00;99595.47;4203171;28;20284;-53
2024/01/21 05:59:33;;;;;;;7.90;7.40;;;;;;;-9.05;100.00;99600.56;4192426;28;20293;-54
2024/01/21 06:01:34;;;;;;;7.50;7.13;;;;;;;-9.15;100.00;99602.13;4185858;28;20261;-53
2024/01/21 06:03:36;;;;;;;7.90;7.43;;;;;;;-9.18;100.00;99604.97;4183897;28;20624;-55
2024/01/21 06:05:38;;;;;;;9.67;9.20;;;;;;;-9.21;100.00;99591.91;4201932;28;20247;-54
2024/01/21 06:07:41;;;;;;;8.27;7.57;;;;;;;-9.27;100.00;99602.94;4187865;28;20782;-55
2024/01/21 06:09:42;;;;;;;11.00;8.80;;;;;;;-9.24;100.00;99621.28;4183637;28;20216;-55
2024/01/21 06:11:44;;;;;;;7.37;6.87;;;;;;;-9.29;100.00;99618.06;4199140;28;20223;-56
2024/01/21 06:13:46;;;;;;;9.93;9.43;;;;;;;-9.25;100.00;99609.00;4184270;28;20598;-55
2024/01/21 06:15:50;;;;;;;8.23;7.73;;;;;;;-9.18;100.00;99604.13;4184081;28;20338;-54
2024/01/21 06:17:52;;;;;;;8.73;8.03;;;;;;;-9.26;100.00;99606.44;4167421;28;20764;-54
2024/01/21 06:19:54;;;;;;;8.90;8.40;;;;;;;-9.15;100.00;99610.06;4198751;28;20301;-53
2024/01/21 06:21:56;;;;;;;7.13;6.83;;;;;;;-9.23;100.00;99612.38;4186976;28;20226;-55
2024/01/21 06:23:57;;;;;;;7.97;7.53;;;;;;;-9.23;100.00;99620.31;4196208;28;20240;-55
2024/01/21 06:25:59;;;;;;;20.13;10.37;;;;;;;-9.21;100.00;99629.00;4199238;28;20705;-55
2024/01/21 06:28:03;;;;;;;8.73;8.23;;;;;;;-9.15;100.00;99615.38;4180222;28;20298;-55
2024/01/21 06:30:15;;;;;;;11.47;10.67;;;;;;;-9.15;100.00;99620.66;4199685;28;20238;-54
2024/01/21 06:32:17;;;;;;;10.20;9.20;;;;;;;-9.09;100.00;99616.78;4180458;28;20787;-54
2024/01/21 06:34:18;;;;;;;9.27;8.87;;;;;;;-9.09;100.00;99608.84;4189657;28;20689;-55
2024/01/21 06:36:22;;;;;;;8.63;7.97;;;;;;;-9.06;100.00;99624.50;4198658;28;20209;-54
2024/01/21 06:38:24;;;;;;;7.60;7.10;;;;;;;-9.07;100.00;99615.72;4182086;28;20681;-55
2024/01/21 06:40:26;;;;;;;13.80;9.73;;;;;;;-9.05;100.00;99613.81;4196167;28;20627;-54
2024/01/21 06:42:28;;;;;;;11.07;10.50;;;;;;;-8.84;100.00;99609.72;4181957;28;20233;-56
2024/01/21 06:44:30;;;;;;;7.87;7.47;;;;;;;-8.88;100.00;99605.56;4181744;28;20237;-54
2024/01/21 06:46:32;;;;;;;18.33;8.80;;;;;;;-8.84;100.00;99606.22;4186895;28;20208;-54
2024/01/21 06:48:34;;;;;;;9.17;8.47;;;;;;;-8.81;100.00;99603.38;4187074;28;20578;-55
2024/01/21 06:50:36;;;;;;;9.20;8.63;;;;;;;-8.87;100.00;99620.56;4190977;28;20265;-57
2024/01/21 06:52:38;;;;;;;8.10;7.80;;;;;;;-8.90;100.00;99617.25;4185046;28;20744;-55
2024/01/21 06:54:40;;;;;;;10.87;8.33;;;;;;;-8.82;100.00;99622.91;4183576;28;21235;-56
2024/01/21 06:56:43;;;;;;;9.77;8.97;;;;;;;-8.72;100.00;99616.88;4183751;28;20727;-57
2024/01/21 06:58:45;;;;;;;8.60;7.90;;;;;;;-8.80;100.00;99621.84;4183640;28;20212;-56
2024/01/21 07:00:51;;;;;;;6.37;6.03;;;;;;;-8.86;100.00;99611.66;4197438;28;20616;-56
2024/01/21 07:02:53;;;;;;;12.97;9.80;;;;;;;-8.79;100.00;99615.59;4183647;28;20227;-53
2024/01/21 07:04:55;;;;;;;9.13;6.87;;;;;;;-8.94;100.00;99621.06;4184896;28;20293;-54
2024/01/21 07:06:57;;;;;;;10.47;7.50;;;;;;;-8.89;100.00;99622.44;4186199;28;20200;-55
2024/01/21 07:08:59;;;;;;;7.83;7.43;;;;;;;-8.82;100.00;99618.41;4189209;28;20211;-55
2024/01/21 07:11:00;;;;;;;7.30;6.90;;;;;;;-8.91;100.00;99615.53;4199593;28;20257;-53
2024/01/21 07:13:03;;;;;;;8.10;7.50;;;;;;;-8.70;100.00;99614.13;4190277;28;20272;-53
2024/01/21 07:15:05;;;;;;;9.20;8.70;;;;;;;-8.78;100.00;99630.53;4200309;28;20219;-54
2024/01/21 07:17:07;;;;;;;11.40;10.67;;;;;;;-8.90;100.00;99618.09;4187454;28;20681;-55
2024/01/21 07:19:08;;;;;;;8.37;7.93;;;;;;;-8.93;100.00;99626.25;4202881;28;20225;-54
2024/01/21 07:21:10;;;;;;;8.73;8.33;;;;;;;-9.05;100.00;99631.50;4200113;28;20254;-54
2024/01/21 07:23:12;;;;;;;7.90;7.60;;;;;;;-9.02;100.00;99640.09;4199108;28;20304;-53
2024/01/21 07:25:14;;;;;;;9.60;8.70;;;;;;;-8.96;100.00;99639.69;4190564;28;20296;-54
2024/01/21 07:27:16;;;;;;;8.33;7.77;;;;;;;-8.84;100.00;99636.25;4187296;28;20333;-54
2024/01/21 07:29:18;;;;;;;9.77;9.17;;;;;;;-8.77;100.00;99636.66;4185553;28;20210;-54
2024/01/21 07:31:20;;;;;;;6.60;6.40;;;;;;;-8.78;100.00;99646.44;4190607;28;20277;-52
2024/01/21 07:33:21;;;;;;;8.33;7.63;;;;;;;-8.81;100.00;99641.31;4176695;28;20640;-55
2024/01/21 07:35:23;;;;;;;8.57;7.87;;;;;;;-8.76;100.00;99649.81;4193155;28;20627;-53
2024/01/21 07:37:25;;;;;;;7.50;7.07;;;;;;;-8.63;100.00;99656.00;4192311;28;20218;-55
2024/01/21 07:39:27;;;;;;;8.60;8.10;;;;;;;-8.68;100.00;99647.50;4182705;28;20212;-54
2024/01/21 07:41:28;;;;;;;9.27;8.70;;;;;;;-8.58;100.00;99651.25;4185045;28;21005;-56
2024/01/21 07:43:30;;;;;;;9.13;8.30;;;;;;;-8.63;100.00;99637.44;4199488;28;20904;-55
2024/01/21 07:45:32;;;;;;;11.20;8.93;;;;;;;-8.57;100.00;99623.78;4182240;28;21081;-55
2024/01/21 07:47:34;;;;;;;11.47;10.60;;;;;;;-8.72;100.00;99624.81;4185862;28;20246;-53
2024/01/21 07:49:36;;;;;;;8.73;8.13;;;;;;;-8.78;100.00;99630.53;4183289;28;20218;-56
2024/01/21 07:51:38;;;;;;;10.87;10.03;;;;;;;-8.64;100.00;99622.50;4185173;28;20306;-54
2024/01/21 07:53:39;;;;;;;8.27;7.23;;;;;;;-8.57;100.00;99634.38;4182697;28;20203;-55
2024/01/21 07:55:41;;;;;;;9.60;8.97;;;;;;;-8.59;100.00;99636.31;4188477;28;20719;-55
2024/01/21 07:57:43;;;;;;;12.47;7.70;;;;;;;-8.53;100.00;99635.88;4182157;28;20609;-53
2024/01/21 07:59:45;;;;;;;11.60;10.67;;;;;;;-8.52;100.00;99637.56;4185626;28;20688;-55
2024/01/21 08:01:46;;;;;;;12.40;10.10;;;;;;;-8.44;100.00;99629.94;4187239;28;20234;-52
2024/01/21 08:03:48;;;;;;;7.37;6.97;;;;;;;-8.45;100.00;99628.25;4202568;28;20298;-53
2024/01/21 08:05:50;;;;;;;8.97;8.57;;;;;;;-8.40;100.00;99642.06;4189620;28;20620;-55
2024/01/21 08:07:52;;;;;;;11.60;10.47;;;;;;;-8.35;100.00;99645.22;4189948;28;20207;-53
2024/01/21 08:09:54;;;;;;;6.70;6.17;;;;;;;-8.26;100.00;99644.59;4189143;28;20207;-59
2024/01/21 08:11:55;;;;;;;12.30;11.50;;;;;;;-8.29;100.00;99650.09;4173522;28;20227;-54
2024/01/21 08:13:57;;;;;;;8.10;7.70;;;;;;;-8.21;100.00;99652.25;4186958;28;20716;-56
2024/01/21 08:15:59;;;;;;;8.83;8.27;;;;;;;-8.12;100.00;99651.56;4203418;28;20226;-55
2024/01/21 08:18:00;;;;;;;8.10;7.50;;;;;;;-8.23;100.00;99643.53;4188825;28;20675;-54
2024/01/21 08:20:03;;;;;;;9.90;9.20;;;;;;;-8.48;100.00;99636.41;4189384;28;20249;-54
2024/01/21 08:22:07;;;;;;;11.40;8.83;;;;;;;-8.17;100.00;99625.34;4190371;28;20231;-54
2024/01/21 08:24:09;;;;;;;11.37;10.47;;;;;;;-8.31;100.00;99636.09;4203962;28;20203;-54
2024/01/21 08:26:11;;;;;;;10.20;9.43;;;;;;;-8.04;100.00;99612.06;4190479;28;21142;-55
2024/01/21 08:28:13;;;;;;;10.37;9.87;;;;;;;-8.17;100.00;99616.53;4202064;28;20641;-56
2024/01/21 08:30:14;;;;;;;8.43;7.83;;;;;;;-8.17;100.00;99606.78;4201813;28;20682;-55
2024/01/21 08:32:16;;;;;;;8.83;8.33;;;;;;;-8.04;100.00;99617.38;4190045;28;20227;-55
2024/01/21 08:34:18;;;;;;;8.97;8.27;;;;;;;-7.88;100.00;99612.69;4203757;28;20248;-54
2024/01/21 08:36:20;;;;;;;14.43;9.83;;;;;;;-7.77;100.00;99621.59;4190460;28;20320;-54
2024/01/21 08:38:22;;;;;;;10.83;10.00;;;;;;;-7.63;100.00;99618.78;4187571;28;20330;-53
2024/01/21 08:40:23;;;;;;;11.70;9.33;;;;;;;-7.46;100.00;99623.75;4169957;28;20617;-53
2024/01/21 08:42:25;;;;;;;9.73;9.00;;;;;;;-7.42;100.00;99638.50;4186943;28;20231;-55
2024/01/21 08:44:27;;;;;;;12.73;10.13;;;;;;;-7.34;100.00;99636.16;4185118;28;20235;-55
2024/01/21 08:46:30;;;;;;;8.03;7.53;;;;;;;-7.18;100.00;99636.72;4189783;28;20199;-54
2024/01/21 08:48:31;;;;;;;11.07;9.53;;;;;;;-7.29;100.00;99639.31;4191491;28;20756;-53
2024/01/21 08:50:33;;;;;;;11.67;9.77;;;;;;;-7.23;100.00;99646.00;4188143;28;20280;-53
2024/01/21 08:52:35;;;;;;;12.63;11.63;;;;;;;-7.18;100.00;99665.97;4190389;28;20227;-53
2024/01/21 08:54:37;;;;;;;10.23;8.60;;;;;;;-7.08;100.00;99666.97;4193905;28;20207;-56
2024/01/21 08:56:39;;;;;;;14.90;11.73;;;;;;;-7.09;100.00;99670.59;4184833;28;20318;-54
2024/01/21 08:58:40;;;;;;;10.57;9.60;;;;;;;-7.00;100.00;99677.91;4189079;28;20576;-55
2024/01/21 09:00:42;;;;;;;10.93;10.27;;;;;;;-6.94;100.00;99682.78;4202659;28;20204;-57
2024/01/21 09:02:44;;;;;;;14.50;13.17;;;;;;;-6.91;100.00;99674.56;4174001;28;20236;-56
2024/01/21 09:04:46;;;;;;;9.03;8.37;;;;;;;-6.84;100.00;99672.28;4190763;28;20238;-56
2024/01/21 09:06:48;;;;;;;11.57;9.87;;;;;;;-7.02;100.00;99663.88;4189558;28;20196;-57
2024/01/21 09:08:53;;;;;;;10.10;9.30;;;;;;;-6.94;100.00;99644.69;4190557;28;20207;-54
2024/01/21 09:10:55;;;;;;;10.50;9.83;;;;;;;-6.87;100.00;99630.84;4192432;28;20199;-54
2024/01/21 09:12:57;;;;;;;8.83;8.13;;;;;;;-7.04;100.00;99617.94;4204771;28;20230;-54
2024/01/21 09:14:58;;;;;;;7.10;6.50;;;;;;;-6.80;100.00;99613.47;4190211;28;20258;-56
2024/01/21 09:17:00;;;;;;;10.07;9.20;;;;;;;-6.79;100.00;99604.50;4187812;28;20243;-57
2024/01/21 09:19:02;;;;;;;13.73;12.67;;;;;;;-6.74;100.00;99606.81;4201807;28;20772;-53
2024/01/21 09:21:04;;;;;;;12.80;11.90;;;;;;;-6.47;100.00;99624.22;4187079;28;20298;-53
2024/01/21 09:23:11;;;;;;;14.47;10.33;;;;;;;-6.26;100.00;99635.00;4189958;28;20227;-58
2024/01/21 09:25:13;;;;;;;14.10;10.27;;;;;;;-6.03;100.00;99634.94;4201348;28;20215;-55